Time;durP1;ratioP1;P1;durP2;ratioP2;P2;SDS_P1;SDS_P2;PMS_P1;PMS_P2;Temp;Humidity;BMP_temperature;BMP_pressure;BME280_temperature;BME280_humidity;BME280_pressure;Samples;Min_cycle;Max_cycle;Signal;HPM_P1;HPM_P2
2022/04/01 00:00:48;;;;;;;46.73;42.57;;;6.20;99.90;;;;;;5009889;28;20497;-73
2022/04/01 00:03:15;;;;;;;47.33;43.20;;;6.20;99.90;;;;;;5012140;28;20457;-72
2022/04/01 00:05:42;;;;;;;46.33;42.13;;;6.30;99.90;;;;;;5012630;28;20457;-73
2022/04/01 00:08:09;;;;;;;47.60;43.40;;;6.30;99.90;;;;;;5012649;28;20461;-72
2022/04/01 00:10:36;;;;;;;48.43;44.37;;;6.20;99.90;;;;;;5012555;28;20450;-74
2022/04/01 00:13:03;;;;;;;46.40;42.13;;;6.20;99.90;;;;;;5012557;28;20459;-72
2022/04/01 00:15:31;;;;;;;46.53;42.53;;;6.20;99.90;;;;;;5012638;28;20447;-73
2022/04/01 00:17:59;;;;;;;47.37;43.27;;;6.10;99.90;;;;;;5012649;28;20461;-74
2022/04/01 00:20:25;;;;;;;47.27;43.13;;;6.00;99.90;;;;;;5012313;28;20489;-73
2022/04/01 00:22:53;;;;;;;46.47;42.60;;;6.00;99.90;;;;;;5012281;28;20909;-73
2022/04/01 00:25:20;;;;;;;46.07;42.47;;;5.90;99.90;;;;;;5012190;28;20454;-73
2022/04/01 00:27:46;;;;;;;48.60;44.40;;;5.90;99.90;;;;;;5012289;28;20454;-73
2022/04/01 00:30:13;;;;;;;46.53;42.70;;;5.80;99.90;;;;;;5012253;28;20941;-74
2022/04/01 00:32:41;;;;;;;46.90;43.10;;;5.90;99.90;;;;;;5012120;28;21089;-74
2022/04/01 00:35:08;;;;;;;46.47;42.27;;;6.00;99.90;;;;;;5012364;28;20447;-74
2022/04/01 00:37:35;;;;;;;47.50;43.53;;;5.90;99.90;;;;;;5012108;28;20937;-74
2022/04/01 00:40:02;;;;;;;45.50;41.80;;;5.90;99.90;;;;;;5012050;28;20457;-73
2022/04/01 00:42:30;;;;;;;46.20;42.43;;;6.00;99.90;;;;;;5004751;28;20474;-74
2022/04/01 00:44:58;;;;;;;45.93;41.70;;;6.00;99.90;;;;;;4996674;28;20847;-74
2022/04/01 00:47:25;;;;;;;49.03;44.93;;;5.90;99.90;;;;;;4992542;28;20549;-74
2022/04/01 00:49:54;;;;;;;51.17;46.53;;;5.90;99.90;;;;;;4989883;28;20472;-74
2022/04/01 00:52:22;;;;;;;45.57;41.73;;;5.90;99.90;;;;;;5001079;28;20456;-74
2022/04/01 00:54:50;;;;;;;46.47;42.23;;;5.80;99.90;;;;;;4992472;28;20461;-74
2022/04/01 00:57:18;;;;;;;45.40;41.57;;;5.80;99.90;;;;;;4992316;28;20471;-74
2022/04/01 00:59:45;;;;;;;47.27;43.23;;;5.80;99.90;;;;;;5015078;28;20477;-74
2022/04/01 01:02:14;;;;;;;44.13;40.37;;;5.90;99.90;;;;;;5031302;28;20488;-74
2022/04/01 01:04:41;;;;;;;46.93;43.00;;;5.90;99.90;;;;;;5031614;28;20452;-74
2022/04/01 01:07:09;;;;;;;48.27;43.97;;;5.80;99.90;;;;;;5031118;28;20488;-74
2022/04/01 01:09:36;;;;;;;45.60;42.10;;;5.80;99.90;;;;;;5031288;28;20445;-74
2022/04/01 01:12:06;;;;;;;48.27;44.27;;;5.80;99.90;;;;;;5031168;28;20461;-73
2022/04/01 01:14:35;;;;;;;47.13;43.37;;;5.80;99.90;;;;;;5031278;28;21000;-74
2022/04/01 01:17:03;;;;;;;47.67;43.60;;;5.70;99.90;;;;;;5031334;28;20487;-73
2022/04/01 01:19:30;;;;;;;48.23;43.80;;;5.70;99.90;;;;;;5031350;28;20787;-73
2022/04/01 01:21:58;;;;;;;42.80;39.50;;;5.80;99.90;;;;;;5030741;28;21037;-74
2022/04/01 01:24:31;;;;;;;44.60;41.10;;;5.70;99.90;;;;;;5031156;28;20452;-75
2022/04/01 01:27:00;;;;;;;44.87;41.33;;;5.70;99.90;;;;;;5031237;28;20484;-75
2022/04/01 01:29:28;;;;;;;45.13;41.13;;;5.60;99.90;;;;;;5031390;28;20790;-74
2022/04/01 01:31:55;;;;;;;45.33;41.70;;;5.60;99.90;;;;;;5030874;28;20449;-75
2022/04/01 01:34:23;;;;;;;43.53;39.90;;;5.60;99.90;;;;;;5030769;28;20789;-74
2022/04/01 01:36:50;;;;;;;44.00;40.50;;;5.60;99.90;;;;;;5030954;28;20476;-75
2022/04/01 01:39:17;;;;;;;42.63;39.63;;;5.70;99.90;;;;;;5031324;28;20888;-74
2022/04/01 01:41:45;;;;;;;43.07;39.77;;;5.70;99.90;;;;;;5030891;28;20489;-75
2022/04/01 01:44:12;;;;;;;44.73;41.23;;;5.70;99.90;;;;;;5030709;28;20445;-75
2022/04/01 01:46:39;;;;;;;42.97;39.37;;;5.60;99.90;;;;;;5031126;28;20445;-75
2022/04/01 01:49:06;;;;;;;43.73;40.33;;;5.50;99.90;;;;;;5037258;28;20503;-74
2022/04/01 01:57:04;;;;;;;45.70;42.00;;;5.50;99.90;;;;;;5030747;28;20426;-73
2022/04/01 01:59:30;;;;;;;44.97;41.37;;;5.60;99.90;;;;;;5030461;28;20542;-74
2022/04/01 02:01:57;;;;;;;45.37;41.57;;;5.60;99.90;;;;;;5030587;28;20853;-76
2022/04/01 02:04:24;;;;;;;42.20;38.90;;;5.50;99.90;;;;;;5030612;28;20453;-75
2022/04/01 02:06:51;;;;;;;45.63;41.97;;;5.50;99.90;;;;;;5030284;28;20445;-74
2022/04/01 02:09:18;;;;;;;43.20;39.77;;;5.50;99.90;;;;;;5030404;28;20807;-74
2022/04/01 02:11:45;;;;;;;43.93;40.47;;;5.40;99.90;;;;;;5030536;28;20453;-75
2022/04/01 02:14:13;;;;;;;43.67;40.17;;;5.40;99.90;;;;;;5030404;28;20464;-73
2022/04/01 02:16:40;;;;;;;44.60;40.87;;;5.40;99.90;;;;;;5030551;28;20453;-74
2022/04/01 02:19:09;;;;;;;45.47;41.80;;;5.40;99.90;;;;;;5032827;28;20893;-75
2022/04/01 02:21:36;;;;;;;45.37;41.67;;;5.40;99.90;;;;;;5034460;28;20480;-73
2022/04/01 02:24:02;;;;;;;44.60;41.07;;;5.40;99.90;;;;;;5034769;28;20453;-72
2022/04/01 02:26:29;;;;;;;45.00;41.30;;;5.30;99.90;;;;;;5034206;28;20543;-75
2022/04/01 02:28:59;;;;;;;44.83;41.40;;;5.30;99.90;;;;;;5034152;28;20456;-75
2022/04/01 02:31:27;;;;;;;45.93;42.00;;;5.30;99.90;;;;;;5034290;28;20997;-74
2022/04/01 02:33:53;;;;;;;46.20;42.50;;;5.30;99.90;;;;;;5034489;28;20444;-73
2022/04/01 02:36:20;;;;;;;46.17;42.30;;;5.40;99.90;;;;;;5034067;28;20453;-73
2022/04/01 02:38:47;;;;;;;46.30;42.53;;;5.40;99.90;;;;;;5034186;28;20445;-72
2022/04/01 02:41:13;;;;;;;45.57;41.77;;;5.40;99.90;;;;;;5034183;28;20512;-73
2022/04/01 02:43:40;;;;;;;47.03;43.23;;;5.50;99.90;;;;;;5034062;28;20462;-73
2022/04/01 02:46:10;;;;;;;45.10;41.30;;;5.50;99.90;;;;;;5033798;28;20452;-73
2022/04/01 02:48:38;;;;;;;43.90;40.30;;;5.40;99.90;;;;;;5033917;28;20805;-74
2022/04/01 02:51:04;;;;;;;46.03;42.13;;;5.40;99.90;;;;;;5044828;28;20465;-73
2022/04/01 02:53:31;;;;;;;48.23;44.07;;;5.40;99.90;;;;;;5033984;28;20459;-73
2022/04/01 02:55:58;;;;;;;45.70;41.83;;;5.40;99.90;;;;;;5033794;28;20448;-74
2022/04/01 02:58:24;;;;;;;47.90;43.80;;;5.30;99.90;;;;;;5033501;28;20468;-74
2022/04/01 03:00:51;;;;;;;49.43;45.23;;;5.40;99.90;;;;;;5033521;28;20489;-75
2022/04/01 03:03:18;;;;;;;45.87;42.07;;;5.40;99.90;;;;;;5033831;28;20449;-75
2022/04/01 03:05:46;;;;;;;48.47;44.30;;;5.40;99.90;;;;;;5033750;28;20445;-74
2022/04/01 03:08:13;;;;;;;47.80;43.77;;;5.40;99.90;;;;;;5033621;28;20923;-76
2022/04/01 03:10:41;;;;;;;50.57;46.27;;;5.40;99.90;;;;;;5033629;28;20448;-75
2022/04/01 03:13:08;;;;;;;47.07;43.23;;;5.40;99.90;;;;;;5033726;28;20853;-75
2022/04/01 03:15:36;;;;;;;46.60;42.77;;;5.40;99.90;;;;;;5033453;28;20453;-74
2022/04/01 03:18:04;;;;;;;46.87;42.53;;;5.30;99.90;;;;;;5033656;28;20453;-74
2022/04/01 03:20:33;;;;;;;46.43;42.63;;;5.30;99.90;;;;;;5033536;28;20539;-74
2022/04/01 03:23:01;;;;;;;48.20;44.20;;;5.30;99.90;;;;;;5033294;28;20571;-75
2022/04/01 03:25:32;;;;;;;46.50;42.80;;;5.30;99.90;;;;;;5033528;28;20464;-74
2022/04/01 03:28:00;;;;;;;47.87;43.97;;;5.10;99.90;;;;;;5033474;28;20495;-73
2022/04/01 03:30:27;;;;;;;45.77;42.17;;;5.10;99.90;;;;;;5033013;28;20514;-74
2022/04/01 03:32:54;;;;;;;46.37;42.67;;;5.10;99.90;;;;;;5033127;28;20445;-74
2022/04/01 03:35:21;;;;;;;45.57;41.87;;;5.00;99.90;;;;;;5032905;28;20808;-73
2022/04/01 03:37:49;;;;;;;44.17;40.63;;;5.10;99.90;;;;;;5033186;28;20460;-73
2022/04/01 03:40:17;;;;;;;45.67;42.07;;;5.00;99.90;;;;;;5033350;28;20453;-74
2022/04/01 03:42:44;;;;;;;45.13;41.37;;;5.10;99.90;;;;;;5032995;28;20520;-75
2022/04/01 03:45:12;;;;;;;43.17;39.40;;;5.10;99.90;;;;;;5033037;28;20869;-76
2022/04/01 03:47:46;;;;;;;42.80;39.40;;;5.00;99.90;;;;;;5032781;28;20564;-76
2022/04/01 03:50:14;;;;;;;43.23;39.73;;;4.90;99.90;;;;;;5032931;28;20455;-75
2022/04/01 03:52:45;;;;;;;44.70;41.27;;;4.90;99.90;;;;;;5032728;28;20449;-74
2022/04/01 03:55:12;;;;;;;44.07;40.43;;;4.80;99.90;;;;;;5032695;28;20931;-74
2022/04/01 03:57:42;;;;;;;42.83;39.43;;;4.90;99.90;;;;;;5032314;28;20784;-74
2022/04/01 04:00:12;;;;;;;43.23;39.93;;;4.90;99.90;;;;;;5032182;28;20578;-74
2022/04/01 04:02:40;;;;;;;44.03;40.37;;;4.90;99.90;;;;;;5032405;28;20498;-73
2022/04/01 04:05:09;;;;;;;42.77;39.27;;;4.90;99.90;;;;;;5032495;28;20457;-73
2022/04/01 04:07:38;;;;;;;44.37;40.87;;;4.90;99.90;;;;;;5032531;28;21054;-73
2022/04/01 04:10:06;;;;;;;44.53;40.97;;;5.00;99.90;;;;;;5032466;28;20463;-73
2022/04/01 04:12:35;;;;;;;45.50;41.70;;;4.80;99.90;;;;;;5032286;28;20457;-74
2022/04/01 04:15:04;;;;;;;46.93;42.70;;;4.90;99.90;;;;;;5032477;28;20974;-74
2022/04/01 04:17:44;;;;;;;44.87;41.33;;;4.90;99.90;;;;;;5032275;28;20952;-75
2022/04/01 04:20:14;;;;;;;43.03;39.53;;;4.90;99.90;;;;;;5032256;28;20452;-75
2022/04/01 04:22:51;;;;;;;43.50;40.17;;;4.80;99.90;;;;;;5032136;28;20604;-75
2022/04/01 04:25:22;;;;;;;41.10;38.00;;;4.80;99.90;;;;;;5032399;28;20825;-74
2022/04/01 04:27:56;;;;;;;41.17;37.97;;;4.90;99.90;;;;;;5031918;28;20457;-74
2022/04/01 04:30:29;;;;;;;44.00;40.80;;;4.80;99.90;;;;;;5032382;28;20839;-74
2022/04/01 04:33:02;;;;;;;41.10;38.03;;;4.80;99.90;;;;;;5032189;28;20437;-75
2022/04/01 04:35:30;;;;;;;42.00;38.83;;;4.70;99.90;;;;;;5032237;28;20998;-76
2022/04/01 04:37:58;;;;;;;41.57;38.20;;;4.70;99.90;;;;;;5031894;28;20495;-74
2022/04/01 04:40:26;;;;;;;43.53;40.30;;;4.80;99.90;;;;;;5031459;28;20762;-75
2022/04/01 04:42:53;;;;;;;43.37;39.97;;;4.80;99.90;;;;;;5031692;28;20544;-74
2022/04/01 04:45:21;;;;;;;41.07;37.90;;;4.80;99.90;;;;;;5031875;28;20461;-74
2022/04/01 04:47:50;;;;;;;42.20;39.00;;;4.80;99.90;;;;;;5031794;28;20462;-74
2022/04/01 04:50:17;;;;;;;41.90;38.50;;;4.80;99.90;;;;;;5031552;28;20459;-74
2022/04/01 04:52:48;;;;;;;42.80;39.50;;;4.80;99.90;;;;;;5031866;28;20449;-75
2022/04/01 04:55:15;;;;;;;41.23;38.27;;;4.90;99.90;;;;;;5032524;28;20437;-75
2022/04/01 04:57:43;;;;;;;40.97;38.03;;;4.90;99.90;;;;;;5031819;28;20481;-74
2022/04/01 05:00:11;;;;;;;40.87;37.93;;;4.80;99.90;;;;;;5031422;28;20994;-76
2022/04/01 05:02:48;;;;;;;40.53;37.63;;;4.80;99.90;;;;;;5031451;28;20492;-75
2022/04/01 05:05:24;;;;;;;41.10;38.30;;;4.70;99.90;;;;;;5031453;28;20452;-76
2022/04/01 05:08:05;;;;;;;41.20;38.30;;;4.70;99.90;;;;;;5031519;28;20448;-75
2022/04/01 05:10:42;;;;;;;39.03;36.23;;;4.70;99.90;;;;;;5031518;28;20515;-75
2022/04/01 05:13:15;;;;;;;38.70;36.10;;;4.60;99.90;;;;;;5031244;28;20717;-75
2022/04/01 05:15:42;;;;;;;38.60;36.00;;;4.60;99.90;;;;;;5031141;28;20449;-74
2022/04/01 05:18:12;;;;;;;39.40;36.70;;;4.60;99.90;;;;;;5031203;28;20461;-74
2022/04/01 05:20:47;;;;;;;39.60;36.70;;;4.60;99.90;;;;;;5031421;28;20858;-75
2022/04/01 05:23:15;;;;;;;37.87;35.27;;;4.70;99.90;;;;;;5031481;28;20526;-76
2022/04/01 05:25:44;;;;;;;37.63;35.20;;;4.70;99.90;;;;;;5030970;28;20457;-75
2022/04/01 05:28:21;;;;;;;38.13;35.33;;;4.60;99.90;;;;;;5030931;28;20462;-76
2022/04/01 05:30:53;;;;;;;37.03;34.53;;;4.50;99.90;;;;;;5031372;28;20457;-74
2022/04/01 05:33:25;;;;;;;38.73;36.33;;;4.50;99.90;;;;;;5031413;28;20961;-74
2022/04/01 05:35:54;;;;;;;39.50;37.10;;;4.40;99.90;;;;;;5030783;28;20457;-75
2022/04/01 05:38:23;;;;;;;36.97;34.57;;;4.40;99.90;;;;;;5031108;28;20461;-75
2022/04/01 05:40:51;;;;;;;39.63;37.03;;;4.40;99.90;;;;;;5032825;28;20878;-75
2022/04/01 05:43:17;;;;;;;38.50;35.87;;;4.40;99.90;;;;;;5032765;28;20487;-73
2022/04/01 05:45:45;;;;;;;40.10;37.57;;;4.40;99.90;;;;;;5032247;28;20822;-75
2022/04/01 05:48:12;;;;;;;39.50;36.90;;;4.40;99.90;;;;;;5030902;28;20455;-75
2022/04/01 05:50:40;;;;;;;44.17;41.00;;;4.50;99.90;;;;;;5030843;28;20455;-75
2022/04/01 05:53:09;;;;;;;42.27;39.30;;;4.50;99.90;;;;;;5030632;28;20451;-71
2022/04/01 05:55:38;;;;;;;40.30;37.70;;;4.50;99.90;;;;;;5032671;28;20455;-72
2022/04/01 05:58:06;;;;;;;41.63;38.73;;;4.60;99.90;;;;;;5030295;28;20547;-72
2022/04/01 06:00:40;;;;;;;44.20;41.20;;;4.60;99.90;;;;;;5030620;28;20493;-71
2022/04/01 06:03:32;;;;;;;41.03;38.37;;;4.70;99.90;;;;;;5030217;28;20490;-71
2022/04/01 06:06:04;;;;;;;42.30;39.50;;;4.60;99.90;;;;;;5030558;28;20449;-72
2022/04/01 06:08:44;;;;;;;42.93;39.93;;;4.50;99.90;;;;;;5030288;28;20821;-73
2022/04/01 06:11:17;;;;;;;42.33;39.53;;;4.50;99.90;;;;;;5029851;28;20462;-72
2022/04/01 06:13:55;;;;;;;40.90;38.27;;;4.50;99.90;;;;;;5029535;28;20444;-72
2022/04/01 06:16:29;;;;;;;43.77;40.87;;;4.50;99.90;;;;;;5029308;28;20456;-72
2022/04/01 06:19:04;;;;;;;43.90;41.07;;;4.50;99.90;;;;;;5029091;28;20440;-71
2022/04/01 06:21:38;;;;;;;44.17;41.07;;;4.50;99.90;;;;;;5029598;28;20495;-71
2022/04/01 06:24:11;;;;;;;40.90;38.20;;;4.40;99.90;;;;;;5029283;28;20538;-71
2022/04/01 06:26:47;;;;;;;44.17;41.17;;;4.50;99.90;;;;;;5029114;28;20452;-72
2022/04/01 06:29:29;;;;;;;43.10;40.20;;;4.50;99.90;;;;;;5029361;28;20599;-72
2022/04/01 06:32:05;;;;;;;43.07;40.27;;;4.60;99.90;;;;;;5029036;28;20468;-72
2022/04/01 06:34:55;;;;;;;43.27;40.37;;;4.70;99.90;;;;;;5029017;28;20558;-72
2022/04/01 06:37:26;;;;;;;43.10;40.20;;;4.60;99.90;;;;;;5028994;28;20460;-73
2022/04/01 06:40:02;;;;;;;44.80;41.67;;;4.70;99.90;;;;;;5028851;28;20476;-73
2022/04/01 06:42:32;;;;;;;42.57;39.77;;;4.70;99.90;;;;;;5028998;28;20924;-72
2022/04/01 06:44:59;;;;;;;41.10;38.40;;;4.70;99.90;;;;;;5029422;28;20440;-73
2022/04/01 06:47:25;;;;;;;41.90;39.10;;;4.80;99.90;;;;;;5029211;28;20868;-73
2022/04/01 06:49:53;;;;;;;43.50;40.70;;;4.80;99.90;;;;;;5028973;28;20445;-72
2022/04/01 06:52:19;;;;;;;42.37;39.43;;;4.80;99.90;;;;;;5029403;28;20462;-73
2022/04/01 06:54:47;;;;;;;43.10;40.30;;;4.90;99.90;;;;;;5029922;28;20452;-74
2022/04/01 06:57:15;;;;;;;45.27;42.03;;;4.60;99.90;;;;;;5029809;28;20465;-73
2022/04/01 06:59:42;;;;;;;43.03;40.03;;;4.60;99.90;;;;;;5029829;28;20516;-73
2022/04/01 07:02:08;;;;;;;44.20;41.50;;;4.60;99.90;;;;;;5029614;28;20450;-73
2022/04/01 07:04:35;;;;;;;43.30;40.57;;;4.60;99.90;;;;;;5031183;28;20458;-72
2022/04/01 07:07:02;;;;;;;44.30;41.43;;;4.70;99.90;;;;;;5051786;28;20846;-72
2022/04/01 07:09:29;;;;;;;45.00;42.17;;;4.60;99.90;;;;;;5070853;28;20454;-73
2022/04/01 07:11:59;;;;;;;45.37;42.23;;;4.70;99.90;;;;;;5053209;28;20448;-73
2022/04/01 07:14:27;;;;;;;46.13;42.93;;;4.70;99.90;;;;;;5053110;28;20463;-73
2022/04/01 07:16:55;;;;;;;46.73;43.63;;;4.80;99.90;;;;;;5053144;28;20442;-73
2022/04/01 07:19:22;;;;;;;46.10;43.00;;;4.80;99.90;;;;;;5053180;28;20569;-72
2022/04/01 07:21:48;;;;;;;47.43;44.10;;;4.80;99.90;;;;;;5053104;28;20455;-72
2022/04/01 07:24:15;;;;;;;44.50;41.50;;;4.70;99.90;;;;;;5053074;28;20556;-71
2022/04/01 07:26:46;;;;;;;46.90;43.70;;;4.70;99.90;;;;;;5053010;28;20443;-72
2022/04/01 07:29:13;;;;;;;47.60;44.40;;;4.60;99.90;;;;;;5053057;28;20451;-73
2022/04/01 07:34:40;;;;;;;46.80;43.70;;;4.50;99.90;;;;;;5053030;28;20793;-73
2022/04/01 07:37:07;;;;;;;47.90;44.60;;;4.50;99.90;;;;;;5052747;28;20511;-73
2022/04/01 07:39:34;;;;;;;48.20;44.80;;;4.40;99.90;;;;;;5052695;28;20499;-72
2022/04/01 07:42:01;;;;;;;45.00;42.00;;;4.50;99.90;;;;;;5053027;28;20450;-72
2022/04/01 07:44:28;;;;;;;46.50;43.30;;;4.50;99.90;;;;;;5052676;28;20519;-73
2022/04/01 07:46:56;;;;;;;45.70;42.50;;;4.60;99.90;;;;;;5052694;28;20456;-73
2022/04/01 07:49:23;;;;;;;42.50;39.80;;;4.60;99.90;;;;;;5052560;28;20455;-73
2022/04/01 07:51:51;;;;;;;42.20;39.50;;;4.50;99.90;;;;;;5052439;28;20466;-73
2022/04/01 07:54:18;;;;;;;43.90;41.00;;;4.60;99.90;;;;;;5052618;28;20487;-73
2022/04/01 07:56:44;;;;;;;45.93;42.80;;;4.60;99.90;;;;;;5052585;28;20459;-73
2022/04/01 07:59:14;;;;;;;41.83;39.23;;;4.60;99.90;;;;;;5052204;28;20487;-73
2022/04/01 08:01:41;;;;;;;41.70;38.87;;;4.60;99.90;;;;;;5051647;28;20868;-73
2022/04/01 08:04:09;;;;;;;39.97;37.33;;;4.80;99.90;;;;;;5051980;28;20472;-73
2022/04/01 08:06:36;;;;;;;40.23;37.80;;;4.80;99.90;;;;;;5047193;28;20468;-73
2022/04/01 08:09:03;;;;;;;42.33;39.53;;;4.70;99.90;;;;;;5032506;28;20452;-73
2022/04/01 08:11:30;;;;;;;44.33;41.17;;;4.80;99.90;;;;;;5046111;28;20441;-73
2022/04/01 08:13:56;;;;;;;44.50;41.37;;;4.90;99.90;;;;;;5052135;28;20994;-73
2022/04/01 08:16:23;;;;;;;45.97;42.83;;;4.80;99.90;;;;;;5051024;28;20456;-72
2022/04/01 08:18:50;;;;;;;44.80;41.73;;;4.80;99.90;;;;;;5051953;28;20483;-73
2022/04/01 08:21:18;;;;;;;40.63;38.03;;;4.70;99.90;;;;;;5052260;28;20862;-72
2022/04/01 08:23:45;;;;;;;42.53;39.73;;;4.80;99.90;;;;;;5051996;28;20483;-72
2022/04/01 08:26:12;;;;;;;42.80;40.20;;;4.90;99.90;;;;;;5052017;28;20447;-72
2022/04/01 08:28:40;;;;;;;41.07;38.50;;;4.70;99.90;;;;;;5048175;28;20448;-72
2022/04/01 08:31:08;;;;;;;41.40;38.80;;;4.70;99.90;;;;;;5051326;28;21075;-72
2022/04/01 08:33:35;;;;;;;43.20;40.50;;;4.70;99.90;;;;;;5051596;28;20460;-72
2022/04/01 08:36:02;;;;;;;46.23;42.93;;;4.80;99.90;;;;;;5051692;28;20452;-71
2022/04/01 08:38:30;;;;;;;48.43;44.87;;;4.80;99.90;;;;;;5051753;28;20452;-71
2022/04/01 08:40:57;;;;;;;45.97;42.47;;;4.80;99.90;;;;;;5051169;28;20961;-72
2022/04/01 08:43:26;;;;;;;42.40;39.70;;;4.80;99.90;;;;;;5051391;28;20841;-73
2022/04/01 08:45:53;;;;;;;40.87;38.27;;;4.70;99.90;;;;;;5051334;28;20483;-74
2022/04/01 08:48:20;;;;;;;44.50;41.43;;;4.70;99.90;;;;;;5051190;28;20456;-72
2022/04/01 08:50:47;;;;;;;41.90;38.90;;;4.80;99.90;;;;;;5051392;28;20930;-72
2022/04/01 08:53:14;;;;;;;42.30;39.50;;;4.90;99.90;;;;;;5051570;28;20444;-73
2022/04/01 08:55:49;;;;;;;41.90;39.20;;;4.80;99.90;;;;;;5051106;28;20558;-74
2022/04/01 08:58:17;;;;;;;42.20;39.60;;;4.90;99.90;;;;;;5051128;28;20478;-73
2022/04/01 09:00:47;;;;;;;43.00;40.40;;;4.90;99.90;;;;;;5050876;28;20927;-72
2022/04/01 09:03:16;;;;;;;38.30;36.10;;;5.00;99.90;;;;;;5051146;28;20483;-73
2022/04/01 09:05:46;;;;;;;40.33;38.03;;;5.00;99.90;;;;;;5051207;28;20470;-73
2022/04/01 09:08:15;;;;;;;39.93;37.70;;;4.80;99.90;;;;;;5050911;28;20463;-72
2022/04/01 09:10:58;;;;;;;38.77;36.17;;;4.70;99.90;;;;;;5050732;28;20457;-74
2022/04/01 09:13:27;;;;;;;39.43;37.13;;;4.60;99.90;;;;;;5050523;28;21618;-73
2022/04/01 09:15:54;;;;;;;40.83;38.63;;;4.60;99.90;;;;;;5050398;28;20477;-74
2022/04/01 09:18:40;;;;;;;40.70;38.23;;;4.50;99.90;;;;;;5050853;28;20454;-73
2022/04/01 09:21:09;;;;;;;38.70;36.40;;;4.60;99.90;;;;;;5050500;28;20488;-74
2022/04/01 09:23:36;;;;;;;42.50;39.83;;;4.60;99.90;;;;;;5050589;28;20491;-73
2022/04/01 09:26:05;;;;;;;42.10;39.70;;;4.60;99.90;;;;;;5050363;28;20452;-73
2022/04/01 09:28:33;;;;;;;39.20;36.90;;;4.60;99.90;;;;;;5050234;28;20473;-73
2022/04/01 09:31:03;;;;;;;41.37;38.77;;;4.70;99.90;;;;;;5050651;28;20456;-74
2022/04/01 09:33:50;;;;;;;38.70;36.37;;;4.90;99.90;;;;;;5050656;28;20440;-73
2022/04/01 09:36:19;;;;;;;39.70;37.50;;;5.00;99.90;;;;;;5050672;28;20447;-74
2022/04/01 09:38:55;;;;;;;39.50;37.20;;;4.80;99.90;;;;;;5050441;28;20459;-74
2022/04/01 09:41:31;;;;;;;39.23;36.93;;;4.70;99.90;;;;;;5050246;28;20452;-73
2022/04/01 09:44:02;;;;;;;40.83;38.40;;;4.70;99.90;;;;;;5032524;28;20577;-73
2022/04/01 09:46:29;;;;;;;38.67;36.40;;;4.70;99.90;;;;;;5030059;28;20457;-73
2022/04/01 09:48:57;;;;;;;40.63;38.40;;;4.70;99.90;;;;;;5030217;28;20560;-73
2022/04/01 09:51:24;;;;;;;37.47;35.27;;;4.70;99.90;;;;;;5030256;28;20472;-74
2022/04/01 09:53:52;;;;;;;40.13;37.93;;;4.90;99.90;;;;;;5030152;28;20446;-73
2022/04/01 09:56:18;;;;;;;40.33;38.03;;;5.10;99.90;;;;;;5030151;28;20489;-73
2022/04/01 09:58:47;;;;;;;41.73;39.33;;;5.10;99.90;;;;;;5030084;28;21227;-73
2022/04/01 10:01:14;;;;;;;39.70;37.50;;;5.10;99.90;;;;;;5030429;28;20473;-74
2022/04/01 10:03:41;;;;;;;37.83;35.63;;;5.00;99.90;;;;;;5029972;28;20571;-73
2022/04/01 10:06:10;;;;;;;39.40;37.20;;;5.00;99.90;;;;;;5030011;28;20591;-73
2022/04/01 10:08:37;;;;;;;42.33;39.77;;;5.10;99.90;;;;;;5030015;28;20460;-73
2022/04/01 10:11:04;;;;;;;41.30;38.67;;;5.10;99.90;;;;;;5029784;28;20462;-75
2022/04/01 10:13:33;;;;;;;40.80;38.60;;;5.10;99.90;;;;;;5030235;28;20458;-73
2022/04/01 10:16:04;;;;;;;41.37;38.90;;;5.10;99.90;;;;;;5030670;28;20456;-73
2022/04/01 10:18:32;;;;;;;41.80;39.40;;;5.10;99.90;;;;;;5030769;28;20499;-73
2022/04/01 10:21:02;;;;;;;40.00;37.50;;;5.20;99.90;;;;;;5030825;28;20453;-73
2022/04/01 10:23:29;;;;;;;40.27;37.97;;;5.20;99.90;;;;;;5030736;28;20496;-74
2022/04/01 10:26:01;;;;;;;41.90;39.60;;;5.20;99.90;;;;;;5030575;28;20456;-74
2022/04/01 10:28:28;;;;;;;39.20;37.00;;;5.10;99.90;;;;;;5030731;28;20462;-73
2022/04/01 10:30:56;;;;;;;41.50;39.10;;;4.90;99.90;;;;;;5030509;28;20452;-74
2022/04/01 10:33:27;;;;;;;42.00;39.60;;;5.00;99.90;;;;;;5030353;28;20541;-73
2022/04/01 10:35:55;;;;;;;40.00;37.80;;;4.90;99.90;;;;;;5030101;28;20456;-73
2022/04/01 10:38:26;;;;;;;39.73;37.53;;;4.70;99.90;;;;;;5030288;28;20458;-73
2022/04/01 10:40:54;;;;;;;39.67;37.50;;;4.90;99.90;;;;;;5034253;28;20465;-73
2022/04/01 10:43:23;;;;;;;40.83;38.50;;;4.70;99.90;;;;;;5034184;28;20969;-73
2022/04/01 10:46:02;;;;;;;38.77;36.57;;;4.70;99.90;;;;;;5034139;28;20475;-73
2022/04/01 10:54:06;;;;;;;41.50;39.17;;;4.70;99.90;;;;;;5034249;28;20437;-73
2022/04/01 10:56:36;;;;;;;39.67;37.67;;;4.80;99.90;;;;;;5034065;28;20553;-74
2022/04/01 10:59:09;;;;;;;41.57;39.37;;;4.90;99.90;;;;;;5033859;28;20514;-73
2022/04/01 11:01:37;;;;;;;42.33;39.77;;;4.70;99.90;;;;;;5033777;28;20456;-74
2022/04/01 11:04:26;;;;;;;37.70;35.60;;;4.70;99.90;;;;;;5033754;28;20516;-74
2022/04/01 11:06:54;;;;;;;40.80;38.60;;;4.70;99.90;;;;;;5033746;28;21197;-74
2022/04/01 11:09:41;;;;;;;41.23;38.83;;;4.60;99.90;;;;;;5033850;28;20526;-74
2022/04/01 11:12:31;;;;;;;42.07;39.57;;;4.70;99.90;;;;;;5033683;28;20531;-73
2022/04/01 11:15:12;;;;;;;38.60;36.50;;;4.90;99.90;;;;;;5033908;28;20458;-74
2022/04/01 11:18:05;;;;;;;39.77;37.60;;;5.00;99.90;;;;;;5033580;28;20452;-73
2022/04/01 11:20:35;;;;;;;40.10;37.90;;;4.90;99.90;;;;;;5033911;28;20825;-74
2022/04/01 11:23:04;;;;;;;39.53;37.33;;;4.90;99.90;;;;;;5033659;28;20935;-74
2022/04/01 11:25:54;;;;;;;41.80;39.60;;;4.70;99.90;;;;;;5033870;28;20588;-74
2022/04/01 11:28:22;;;;;;;37.70;35.70;;;4.50;99.90;;;;;;5033406;28;20461;-74
2022/04/01 11:31:12;;;;;;;37.90;35.90;;;4.60;99.90;;;;;;5033245;28;20454;-74
2022/04/01 11:33:39;;;;;;;39.97;37.67;;;4.80;99.90;;;;;;5033424;28;20547;-73
2022/04/01 11:36:08;;;;;;;39.33;37.20;;;4.80;99.90;;;;;;5033222;28;20457;-74
2022/04/01 11:38:35;;;;;;;38.73;36.63;;;4.90;99.90;;;;;;5033340;28;20480;-74
2022/04/01 11:41:03;;;;;;;41.37;38.83;;;5.00;99.90;;;;;;5033432;28;20464;-74
2022/04/01 11:43:31;;;;;;;39.73;37.53;;;4.90;99.90;;;;;;5033352;28;20452;-73
2022/04/01 11:46:02;;;;;;;38.77;36.57;;;4.90;99.90;;;;;;5033094;28;20456;-73
2022/04/01 11:48:30;;;;;;;39.07;36.97;;;4.80;99.90;;;;;;5033151;28;20993;-74
2022/04/01 11:50:59;;;;;;;38.53;36.43;;;4.70;99.90;;;;;;5032951;28;20466;-74
2022/04/01 11:53:31;;;;;;;39.70;37.47;;;4.60;99.90;;;;;;5033037;28;20453;-73
2022/04/01 11:55:58;;;;;;;40.63;38.33;;;4.70;99.90;;;;;;5033273;28;20846;-71
2022/04/01 11:58:26;;;;;;;39.70;37.60;;;4.60;99.90;;;;;;5032727;28;20479;-72
2022/04/01 12:00:54;;;;;;;38.93;36.63;;;4.70;99.90;;;;;;5032842;28;20481;-72
2022/04/01 12:03:21;;;;;;;40.10;37.90;;;4.60;99.90;;;;;;5032627;28;20512;-71
2022/04/01 12:05:53;;;;;;;37.57;35.57;;;4.70;99.90;;;;;;5032466;28;20504;-74
2022/04/01 12:11:07;;;;;;;37.80;35.77;;;4.80;99.90;;;;;;5032799;28;20472;-74
2022/04/01 12:13:34;;;;;;;38.40;36.30;;;4.90;99.90;;;;;;5032696;28;20508;-74
2022/04/01 12:16:00;;;;;;;40.43;38.23;;;4.80;99.90;;;;;;5032749;28;20452;-73
2022/04/01 12:18:30;;;;;;;39.50;37.40;;;4.80;99.90;;;;;;5032732;28;20969;-73
2022/04/01 12:20:58;;;;;;;41.47;39.07;;;4.90;99.90;;;;;;5032429;28;20451;-73
2022/04/01 12:23:26;;;;;;;42.57;40.27;;;4.70;99.90;;;;;;5032556;28;20456;-73
2022/04/01 12:25:55;;;;;;;41.97;39.67;;;4.50;99.90;;;;;;5032241;28;20504;-74
2022/04/01 12:28:27;;;;;;;42.50;40.00;;;4.50;99.90;;;;;;5032387;28;20459;-74
2022/04/01 12:30:57;;;;;;;42.00;39.60;;;4.60;99.90;;;;;;5032357;28;20501;-74
2022/04/01 12:33:27;;;;;;;42.73;40.13;;;4.80;99.90;;;;;;5032232;28;20449;-74
2022/04/01 12:35:59;;;;;;;40.73;38.33;;;4.80;99.90;;;;;;5032293;28;20472;-74
2022/04/01 12:38:27;;;;;;;41.20;38.90;;;4.80;99.90;;;;;;5031998;28;20505;-73
2022/04/01 12:40:57;;;;;;;42.43;40.03;;;4.80;99.90;;;;;;5031927;28;20854;-73
2022/04/01 12:43:40;;;;;;;41.37;39.17;;;4.60;99.90;;;;;;5030237;28;20449;-73
2022/04/01 12:46:09;;;;;;;39.23;36.93;;;4.50;99.90;;;;;;5029699;28;20488;-73
2022/04/01 12:48:47;;;;;;;44.00;41.40;;;4.30;99.90;;;;;;5031189;28;20456;-72
2022/04/01 12:51:22;;;;;;;42.90;40.50;;;4.20;99.90;;;;;;5031259;28;20924;-73
2022/04/01 12:54:01;;;;;;;41.40;39.07;;;4.10;99.90;;;;;;5031246;28;20444;-73
2022/04/01 12:56:30;;;;;;;41.83;39.23;;;3.90;99.90;;;;;;5031255;28;20515;-73
2022/04/01 12:59:00;;;;;;;42.50;39.90;;;3.80;99.90;;;;;;5030844;28;20480;-73
2022/04/01 13:01:29;;;;;;;42.30;39.47;;;4.00;99.90;;;;;;5031426;28;20454;-73
2022/04/01 13:03:59;;;;;;;40.40;37.93;;;4.30;99.90;;;;;;5031541;28;20449;-74